Time,TemperatureF,DewpointF,PressureIn,WindDirection,WindDirectionDegrees,WindSpeedMPH,WindSpeedGustMPH,Humidity,HourlyPrecipIn,Conditions,Clouds,dailyrainin,SoftwareType,DateUTC
2014-11-21 00:01:00,73.5,67.3,30.12,ENE,65,10.4,10.4,81,0.00,CLR,,0.00,WeatherDisplay:10.37,2014-11-21 05:01:00,
2014-11-21 00:06:00,73.5,67.3,30.12,East,80,11.5,11.5,81,0.00,CLR,,0.00,WeatherDisplay:10.37,2014-11-21 05:06:00,
2014-11-21 00:11:00,73.6,67.8,30.11,ENE,69,18.4,18.4,82,0.00,CLR,,0.00,WeatherDisplay:10.37,2014-11-21 05:11:00,
2014-11-21 00:16:00,73.2,67.7,30.11,East,84,20.7,20.7,83,0.00,CLR,,0.00,WeatherDisplay:10.37,2014-11-21 05:16:00,
2014-11-21 00:21:00,72.9,67.8,30.12,NE,55,14.0,14.0,84,0.00,CLR,,0.00,WeatherDisplay:10.37,2014-11-21 05:21:00,
2014-11-21 00:26:00,72.5,68.1,30.12,ENE,68,11.5,11.5,86,0.00,CLR,,0.00,WeatherDisplay:10.37,2014-11-21 05:26:00,
2014-11-21 00:31:00,72.2,68.1,30.11,NE,55,12.7,12.7,87,0.00,CLR,,0.00,WeatherDisplay:10.37,2014-11-21 05:31:00,
2014-11-21 00:36:00,71.8,68.1,30.11,NE,52,13.8,13.8,88,0.00,CLR,,0.00,WeatherDisplay:10.37,2014-11-21 05:36:00,
2014-11-21 00:41:00,71.4,68.0,30.11,East,84,8.1,8.1,89,0.00,CLR,,0.00,WeatherDisplay:10.37,2014-11-21 05:41:00,
2014-11-21 00:46:00,71.2,68.1,30.11,ENE,69,11.5,11.5,90,0.00,CLR,,0.00,WeatherDisplay:10.37,2014-11-21 05:46:00,
2014-11-21 00:51:00,71.0,68.2,30.11,NE,51,6.9,6.9,91,0.00,CLR,,0.00,WeatherDisplay:10.37,2014-11-21 05:51:00,
2014-11-21 00:56:00,70.9,68.1,30.11,ENE,57,11.5,11.5,91,0.00,CLR,,0.00,WeatherDisplay:10.37,2014-11-21 05:56:00,
2014-11-21 01:02:00,70.8,68.4,30.11,NE,53,10.4,10.4,92,0.00,CLR,,0.00,WeatherDisplay:10.37,2014-11-21 06:02:00,
2014-11-21 01:07:00,70.7,68.3,30.11,NE,56,6.9,6.9,92,0.00,CLR,,0.00,WeatherDisplay:10.37,2014-11-21 06:07:00,
2014-11-21 01:12:00,70.6,68.2,30.11,ENE,69,10.4,10.4,92,0.00,CLR,,0.00,WeatherDisplay:10.37,2014-11-21 06:12:00,
2014-11-21 01:17:00,70.7,68.3,30.11,ENE,59,11.0,11.0,92,0.00,CLR,,0.00,WeatherDisplay:10.37,2014-11-21 06:17:00,
2014-11-21 01:22:00,70.7,68.3,30.10,NNE,31,8.1,8.1,92,0.00,CLR,,0.00,WeatherDisplay:10.37,2014-11-21 06:22:00,
2014-11-21 01:27:00,70.8,68.4,30.10,ENE,76,8.1,8.1,92,0.00,CLR,,0.00,WeatherDisplay:10.37,2014-11-21 06:27:00,
2014-11-21 01:32:00,70.7,68.6,30.10,ENE,65,12.7,12.7,93,0.00,CLR,,0.00,WeatherDisplay:10.37,2014-11-21 06:32:00,
2014-11-21 01:37:00,70.7,68.6,30.10,NE,55,8.1,8.1,93,0.00,CLR,,0.00,WeatherDisplay:10.37,2014-11-21 06:37:00,
2014-11-21 01:42:00,70.5,68.4,30.10,ENE,63,6.0,6.0,93,0.00,CLR,,0.00,WeatherDisplay:10.37,2014-11-21 06:42:00,
2014-11-21 01:47:00,70.5,68.7,30.10,ENE,63,10.4,10.4,94,0.00,CLR,,0.00,WeatherDisplay:10.37,2014-11-21 06:47:00,
2014-11-21 01:52:00,70.4,68.6,30.10,ENE,66,11.5,11.5,94,0.00,CLR,,0.00,WeatherDisplay:10.37,2014-11-21 06:52:00,
2014-11-21 01:58:00,70.3,68.5,30.10,ENE,76,11.5,11.5,94,0.00,CLR,,0.00,WeatherDisplay:10.37,2014-11-21 06:58:00,
2014-11-21 02:03:00,70.3,68.8,30.10,NNE,12,5.8,5.8,95,0.00,CLR,,0.00,WeatherDisplay:10.37,2014-11-21 07:03:00,
2014-11-21 02:08:00,70.2,68.7,30.10,NNE,31,4.6,4.6,95,0.00,CLR,,0.00,WeatherDisplay:10.37,2014-11-21 07:08:00,
2014-11-21 02:13:00,70.2,68.7,30.09,NE,55,5.8,5.8,95,0.00,CLR,,0.00,WeatherDisplay:10.37,2014-11-21 07:13:00,
2014-11-21 02:18:00,70.1,68.6,30.09,ENE,61,6.9,6.9,95,0.00,CLR,,0.00,WeatherDisplay:10.37,2014-11-21 07:18:00,
2014-11-21 02:23:00,70.1,68.6,30.09,ENE,62,3.5,3.5,95,0.00,CLR,,0.00,WeatherDisplay:10.37,2014-11-21 07:23:00,
2014-11-21 02:28:00,70.1,68.6,30.09,ENE,61,4.6,4.6,95,0.00,CLR,,0.00,WeatherDisplay:10.37,2014-11-21 07:28:00,
2014-11-21 02:33:00,70.1,68.6,30.09,ENE,57,6.9,6.9,95,0.00,CLR,,0.00,WeatherDisplay:10.37,2014-11-21 07:33:00,
2014-11-21 02:38:00,70.1,68.6,30.09,ENE,72,6.9,6.9,95,0.00,CLR,,0.00,WeatherDisplay:10.37,2014-11-21 07:38:00,
2014-11-21 02:43:00,70.1,68.6,30.09,NNW,335,3.5,3.5,95,0.00,CLR,,0.00,WeatherDisplay:10.37,2014-11-21 07:43:00,
2014-11-21 02:48:00,70.1,68.6,30.09,East,81,5.8,5.8,95,0.00,CLR,,0.00,WeatherDisplay:10.37,2014-11-21 07:48:00,
2014-11-21 02:53:00,70.1,68.9,30.09,ENE,68,4.6,4.6,96,0.00,CLR,,0.00,WeatherDisplay:10.37,2014-11-21 07:53:00,
2014-11-21 02:58:00,70.1,68.9,30.09,ENE,65,4.6,4.6,96,0.00,CLR,,0.00,WeatherDisplay:10.37,2014-11-21 07:58:00,
2014-11-21 03:03:00,70.1,68.9,30.09,NE,52,4.6,4.6,96,0.00,CLR,,0.00,WeatherDisplay:10.37,2014-11-21 08:03:00,
2014-11-21 03:08:00,70.0,68.8,30.09,NE,43,4.0,4.0,96,0.00,CLR,,0.00,WeatherDisplay:10.37,2014-11-21 08:08:00,
2014-11-21 03:13:00,70.0,68.8,30.09,NE,50,6.0,6.0,96,0.00,CLR,,0.00,WeatherDisplay:10.37,2014-11-21 08:13:00,
2014-11-21 03:18:00,70.0,68.8,30.09,ENE,59,6.9,6.9,96,0.00,CLR,,0.00,WeatherDisplay:10.37,2014-11-21 08:18:00,
2014-11-21 03:23:00,70.0,68.8,30.09,ENE,63,8.1,8.1,96,0.00,CLR,,0.00,WeatherDisplay:10.37,2014-11-21 08:23:00,
2014-11-21 03:28:00,69.9,68.7,30.09,ENE,63,10.4,10.4,96,0.01,RA,,0.01,WeatherDisplay:10.37,2014-11-21 08:28:00,
2014-11-21 03:33:00,69.9,68.7,30.09,NE,49,5.0,5.0,96,0.01,RA,,0.01,WeatherDisplay:10.37,2014-11-21 08:33:00,
2014-11-21 03:38:00,69.8,68.6,30.09,ENE,69,8.1,8.1,96,0.01,CLR,,0.01,WeatherDisplay:10.37,2014-11-21 08:38:00,
2014-11-21 03:43:00,69.8,68.6,30.09,ENE,66,6.9,6.9,96,0.01,CLR,,0.01,WeatherDisplay:10.37,2014-11-21 08:43:00,
2014-11-21 03:48:00,69.8,68.9,30.09,ENE,71,4.6,4.6,97,0.01,CLR,,0.01,WeatherDisplay:10.37,2014-11-21 08:48:00,
2014-11-21 03:53:00,69.8,68.9,30.09,ENE,65,5.0,5.0,97,0.01,CLR,,0.01,WeatherDisplay:10.37,2014-11-21 08:53:00,
2014-11-21 03:58:00,69.8,68.9,30.09,ENE,68,6.9,6.9,97,0.01,CLR,,0.01,WeatherDisplay:10.37,2014-11-21 08:58:00,
2014-11-21 04:03:00,69.9,69.0,30.09,ENE,65,4.6,4.6,97,0.01,CLR,,0.01,WeatherDisplay:10.37,2014-11-21 09:03:00,
2014-11-21 04:08:00,69.9,69.0,30.09,North,11,6.0,6.0,97,0.01,CLR,,0.01,WeatherDisplay:10.37,2014-11-21 09:08:00,
2014-11-21 04:13:00,69.8,68.9,30.09,NNE,13,6.9,6.9,97,0.01,CLR,,0.01,WeatherDisplay:10.37,2014-11-21 09:13:00,
2014-11-21 04:18:00,69.8,68.9,30.09,NNW,337,6.9,6.9,97,0.01,CLR,,0.01,WeatherDisplay:10.37,2014-11-21 09:18:00,
2014-11-21 04:23:00,69.8,68.9,30.09,NE,50,3.5,3.5,97,0.02,RA,,0.02,WeatherDisplay:10.37,2014-11-21 09:23:00,
2014-11-21 04:28:00,69.8,68.9,30.08,ENE,63,11.5,11.5,97,0.01,RA,,0.02,WeatherDisplay:10.37,2014-11-21 09:28:00,
2014-11-21 04:33:00,69.8,68.9,30.08,ENE,76,3.5,3.5,97,0.01,CLR,,0.02,WeatherDisplay:10.37,2014-11-21 09:33:00,
2014-11-21 04:38:00,69.8,68.9,30.08,ENE,66,8.1,8.1,97,0.01,CLR,,0.02,WeatherDisplay:10.37,2014-11-21 09:38:00,
2014-11-21 04:43:00,69.9,69.0,30.08,ENE,63,8.1,8.1,97,0.01,CLR,,0.02,WeatherDisplay:10.37,2014-11-21 09:43:00,
2014-11-21 04:48:00,69.9,69.0,30.08,East,81,10.4,10.4,97,0.01,CLR,,0.02,WeatherDisplay:10.37,2014-11-21 09:48:00,
2014-11-21 04:53:00,69.9,69.0,30.08,ENE,68,8.1,8.1,97,0.01,CLR,,0.02,WeatherDisplay:10.37,2014-11-21 09:53:00,
2014-11-21 04:58:00,69.9,69.0,30.08,ENE,63,11.5,11.5,97,0.01,CLR,,0.02,WeatherDisplay:10.37,2014-11-21 09:58:00,
2014-11-21 05:03:00,70.0,69.1,30.08,ENE,63,11.5,11.5,97,0.01,CLR,,0.02,WeatherDisplay:10.37,2014-11-21 10:03:00,
2014-11-21 05:09:00,70.0,69.1,30.08,NE,44,6.9,6.9,97,0.01,CLR,,0.02,WeatherDisplay:10.37,2014-11-21 10:09:00,
2014-11-21 05:14:00,70.0,69.1,30.08,ENE,63,13.0,13.0,97,0.02,RA,,0.03,WeatherDisplay:10.37,2014-11-21 10:14:00,
2014-11-21 05:19:00,70.0,69.1,30.08,NE,55,7.0,7.1,97,0.02,RA,,0.03,WeatherDisplay:10.37,2014-11-21 10:19:00,
2014-11-21 05:24:00,70.0,69.1,30.08,NE,49,10.4,10.4,97,0.01,CLR,,0.03,WeatherDisplay:10.37,2014-11-21 10:24:00,
2014-11-21 05:29:00,70.0,69.1,30.08,ENE,78,8.1,8.7,97,0.01,CLR,,0.03,WeatherDisplay:10.37,2014-11-21 10:29:00,
2014-11-21 05:34:00,70.0,69.1,30.09,ENE,71,11.5,11.5,97,0.01,CLR,,0.03,WeatherDisplay:10.37,2014-11-21 10:34:00,
2014-11-21 05:39:00,70.0,69.1,30.09,ENE,58,12.7,12.7,97,0.01,CLR,,0.03,WeatherDisplay:10.37,2014-11-21 10:39:00,
2014-11-21 05:44:00,70.0,69.1,30.09,ENE,64,10.4,10.4,97,0.01,CLR,,0.03,WeatherDisplay:10.37,2014-11-21 10:44:00,
2014-11-21 05:49:00,70.1,69.2,30.10,ENE,68,12.7,12.7,97,0.01,CLR,,0.03,WeatherDisplay:10.37,2014-11-21 10:49:00,
2014-11-21 05:54:00,70.1,69.2,30.10,NE,41,10.4,10.4,97,0.01,CLR,,0.03,WeatherDisplay:10.37,2014-11-21 10:54:00,
2014-11-21 05:59:00,70.1,69.5,30.10,ENE,68,8.1,8.1,98,0.01,CLR,,0.03,WeatherDisplay:10.37,2014-11-21 10:59:00,
2014-11-21 06:07:00,70.1,69.5,30.10,NE,44,8.1,8.1,98,0.02,RA,,0.04,WeatherDisplay:10.37,2014-11-21 11:07:00,
2014-11-21 06:12:00,70.1,69.5,30.10,ENE,57,4.6,4.6,98,0.01,RA,,0.04,WeatherDisplay:10.37,2014-11-21 11:12:00,
2014-11-21 06:17:00,70.1,69.5,30.10,NNE,28,2.3,2.3,98,0.01,CLR,,0.04,WeatherDisplay:10.37,2014-11-21 11:17:00,
2014-11-21 06:22:00,70.1,69.5,30.10,NE,41,3.5,3.5,98,0.01,CLR,,0.04,WeatherDisplay:10.37,2014-11-21 11:22:00,
2014-11-21 06:27:00,70.1,69.5,30.10,NNE,30,3.5,3.5,98,0.02,RA,,0.05,WeatherDisplay:10.37,2014-11-21 11:27:00,
2014-11-21 06:37:00,70.0,69.4,30.11,NE,51,8.1,8.1,98,0.02,CLR,,0.05,WeatherDisplay:10.37,2014-11-21 11:37:00,
2014-11-21 06:59:00,69.8,69.2,30.11,ENE,74,12.0,12.0,98,0.03,CLR,,0.06,WeatherDisplay:10.37,2014-11-21 11:59:00,
2014-11-21 07:04:00,69.8,69.2,30.11,NNE,24,8.1,8.1,98,0.03,RA,,0.07,WeatherDisplay:10.37,2014-11-21 12:04:00,
2014-11-21 07:09:00,69.8,69.2,30.11,ENE,61,10.4,10.4,98,0.03,RA,,0.07,WeatherDisplay:10.37,2014-11-21 12:09:00,
2014-11-21 07:14:00,69.7,69.1,30.11,ENE,66,10.0,10.0,98,0.03,CLR,,0.07,WeatherDisplay:10.37,2014-11-21 12:14:00,
2014-11-21 07:19:00,69.8,69.2,30.11,ENE,61,4.6,4.6,98,0.03,CLR,,0.07,WeatherDisplay:10.37,2014-11-21 12:19:00,
2014-11-21 07:52:00,70.1,69.5,30.13,NE,51,8.1,8.1,98,0.02,CLR,,0.08,WeatherDisplay:10.37,2014-11-21 12:52:00,
2014-11-21 07:57:00,70.2,69.6,30.13,NNE,31,8.1,8.1,98,0.02,CLR,,0.08,WeatherDisplay:10.37,2014-11-21 12:57:00,
2014-11-21 08:02:00,70.2,69.6,30.13,NE,47,8.1,8.1,98,0.01,CLR,,0.08,WeatherDisplay:10.37,2014-11-21 13:02:00,
2014-11-21 08:07:00,70.3,69.7,30.13,NE,52,10.0,10.0,98,0.02,RA,,0.09,WeatherDisplay:10.37,2014-11-21 13:07:00,
2014-11-21 08:12:00,70.3,69.7,30.14,NE,52,13.0,13.0,98,0.02,RA,,0.09,WeatherDisplay:10.37,2014-11-21 13:12:00,
2014-11-21 08:18:00,70.3,69.7,30.14,NE,51,12.7,12.7,98,0.03,RA,,0.10,WeatherDisplay:10.37,2014-11-21 13:18:00,
2014-11-21 08:46:00,69.6,69.0,30.15,NNW,343,13.0,13.0,98,0.06,RA,,0.14,WeatherDisplay:10.37,2014-11-21 13:46:00,
2014-11-21 08:51:00,69.6,69.0,30.15,NNE,28,11.5,11.5,98,0.07,RA,,0.15,WeatherDisplay:10.37,2014-11-21 13:51:00,
2014-11-21 09:02:00,69.6,69.0,30.15,NW,322,13.0,13.0,98,0.10,RA,,0.18,WeatherDisplay:10.37,2014-11-21 14:02:00,
2014-11-21 09:07:00,69.7,69.1,30.16,ENE,76,13.8,13.8,98,0.10,RA,,0.19,WeatherDisplay:10.37,2014-11-21 14:07:00,
2014-11-21 09:12:00,69.7,69.1,30.16,NE,39,11.5,11.5,98,0.10,RA,,0.19,WeatherDisplay:10.37,2014-11-21 14:12:00,
2014-11-21 09:20:00,69.8,69.2,30.16,ENE,75,6.9,6.9,98,0.08,CLR,,0.19,WeatherDisplay:10.37,2014-11-21 14:20:00,
2014-11-21 09:27:00,69.9,69.3,30.17,NE,44,7.0,7.0,98,0.08,RA,,0.20,WeatherDisplay:10.37,2014-11-21 14:27:00,
2014-11-21 09:32:00,69.9,69.3,30.17,ENE,69,10.4,10.4,98,0.10,RA,,0.22,WeatherDisplay:10.37,2014-11-21 14:32:00,
2014-11-21 09:41:00,70.0,69.4,30.17,ENE,63,10.4,10.4,98,0.09,RA,,0.23,WeatherDisplay:10.37,2014-11-21 14:41:00,
2014-11-21 09:46:00,70.0,69.4,30.17,ENE,60,8.1,8.1,98,0.10,RA,,0.24,WeatherDisplay:10.37,2014-11-21 14:46:00,
2014-11-21 09:51:00,70.1,69.5,30.17,NE,52,10.4,10.4,98,0.09,RA,,0.24,WeatherDisplay:10.37,2014-11-21 14:51:00,
2014-11-21 09:56:00,70.2,69.6,30.17,NE,34,11.5,11.5,98,0.08,,,0.24,WeatherDisplay:10.37,2014-11-21 14:56:00,
2014-11-21 10:05:00,70.3,69.7,30.17,ENE,71,12.7,12.7,98,0.05,CLR,,0.24,WeatherDisplay:10.37,2014-11-21 15:05:00,
2014-11-21 10:10:00,70.4,69.8,30.17,ENE,59,17.3,17.3,98,0.05,CLR,,0.24,WeatherDisplay:10.37,2014-11-21 15:10:00,
2014-11-21 10:15:00,70.4,69.8,30.17,ENE,63,11.5,11.5,98,0.05,CLR,,0.24,WeatherDisplay:10.37,2014-11-21 15:15:00,
2014-11-21 10:25:00,70.3,69.7,30.17,ENE,63,20.0,20.0,98,0.06,RA,,0.25,WeatherDisplay:10.37,2014-11-21 15:25:00,
2014-11-21 10:31:00,70.3,69.7,30.17,East,84,13.0,13.0,98,0.03,CLR,,0.25,WeatherDisplay:10.37,2014-11-21 15:31:00,
2014-11-21 10:36:00,70.3,69.7,30.17,NE,55,12.7,12.7,98,0.04,RA,,0.26,WeatherDisplay:10.37,2014-11-21 15:36:00,
2014-11-21 10:41:00,70.3,69.7,30.17,ENE,69,11.5,11.5,98,0.03,RA,,0.26,WeatherDisplay:10.37,2014-11-21 15:41:00,
2014-11-21 10:46:00,70.3,69.7,30.17,ENE,58,13.8,13.8,98,0.02,,,0.26,WeatherDisplay:10.37,2014-11-21 15:46:00,
2014-11-21 10:53:00,70.3,69.7,30.17,ENE,57,16.0,16.0,98,0.02,CLR,,0.26,WeatherDisplay:10.37,2014-11-21 15:53:00,
2014-11-21 10:58:00,70.3,69.7,30.16,ENE,60,13.8,13.8,98,0.02,CLR,,0.26,WeatherDisplay:10.37,2014-11-21 15:58:00,
2014-11-21 11:03:00,70.3,69.7,30.16,ENE,65,12.7,12.7,98,0.03,RA,,0.27,WeatherDisplay:10.37,2014-11-21 16:03:00,
2014-11-21 11:10:00,70.4,69.8,30.16,ENE,69,21.0,21.0,98,0.03,,,0.27,WeatherDisplay:10.37,2014-11-21 16:10:00,
2014-11-21 11:15:00,70.3,69.7,30.16,ENE,71,18.4,18.4,98,0.03,CLR,,0.27,WeatherDisplay:10.37,2014-11-21 16:15:00,
2014-11-21 11:20:00,70.4,69.8,30.16,ENE,68,11.5,11.5,98,0.02,CLR,,0.27,WeatherDisplay:10.37,2014-11-21 16:20:00,
2014-11-21 11:25:00,70.3,69.7,30.16,ENE,63,11.5,11.5,98,0.02,CLR,,0.27,WeatherDisplay:10.37,2014-11-21 16:25:00,
2014-11-21 11:31:00,70.2,69.6,30.16,ENE,60,15.0,15.0,98,0.03,RA,,0.28,WeatherDisplay:10.37,2014-11-21 16:31:00,
2014-11-21 11:43:00,70.1,69.5,30.15,NE,47,17.3,17.3,98,0.03,RA,,0.29,WeatherDisplay:10.37,2014-11-21 16:43:00,
2014-11-21 11:48:00,70.2,69.6,30.15,NE,47,14.0,14.0,98,0.03,RA,,0.29,WeatherDisplay:10.37,2014-11-21 16:48:00,
2014-11-21 11:53:00,70.2,69.6,30.15,ENE,63,12.7,12.7,98,0.04,RA,,0.30,WeatherDisplay:10.37,2014-11-21 16:53:00,
2014-11-21 11:58:00,70.3,69.7,30.15,NE,47,12.0,12.0,98,0.04,RA,,0.30,WeatherDisplay:10.37,2014-11-21 16:58:00,
2014-11-21 12:03:00,70.4,69.8,30.15,NE,44,17.3,17.3,98,0.03,CLR,,0.30,WeatherDisplay:10.37,2014-11-21 17:03:00,
2014-11-21 12:08:00,70.5,69.9,30.14,ENE,70,11.5,11.5,98,0.03,CLR,,0.30,WeatherDisplay:10.37,2014-11-21 17:08:00,
2014-11-21 12:13:00,70.5,69.9,30.14,NE,55,11.5,11.5,98,0.03,CLR,,0.30,WeatherDisplay:10.37,2014-11-21 17:13:00,
2014-11-21 12:18:00,70.6,70.0,30.14,ENE,65,13.8,13.8,98,0.03,CLR,,0.30,WeatherDisplay:10.37,2014-11-21 17:18:00,
2014-11-21 12:23:00,70.6,70.0,30.14,NNE,33,15.0,15.0,98,0.03,CLR,,0.30,WeatherDisplay:10.37,2014-11-21 17:23:00,
2014-11-21 12:28:00,70.7,70.1,30.13,East,80,12.7,12.7,98,0.03,CLR,,0.30,WeatherDisplay:10.37,2014-11-21 17:28:00,
2014-11-21 12:33:00,70.8,70.2,30.13,ENE,63,17.3,17.3,98,0.02,CLR,,0.30,WeatherDisplay:10.37,2014-11-21 17:33:00,
2014-11-21 12:38:00,70.8,70.2,30.13,ENE,65,11.5,11.5,98,0.02,CLR,,0.30,WeatherDisplay:10.37,2014-11-21 17:38:00,
2014-11-21 12:43:00,70.8,70.2,30.13,NE,47,10.4,10.4,98,0.01,CLR,,0.30,WeatherDisplay:10.37,2014-11-21 17:43:00,
2014-11-21 12:49:00,70.8,70.2,30.12,ENE,61,8.1,8.1,98,0.01,CLR,,0.30,WeatherDisplay:10.37,2014-11-21 17:49:00,
2014-11-21 12:54:00,70.8,70.2,30.12,NE,39,8.1,8.1,98,0.00,CLR,,0.30,WeatherDisplay:10.37,2014-11-21 17:54:00,
2014-11-21 12:59:00,70.8,70.2,30.12,ENE,78,13.8,13.8,98,0.00,CLR,,0.30,WeatherDisplay:10.37,2014-11-21 17:59:00,
2014-11-21 13:04:00,70.7,70.1,30.12,ENE,60,13.8,13.8,98,0.00,CLR,,0.30,WeatherDisplay:10.37,2014-11-21 18:04:00,
2014-11-21 13:09:00,70.7,70.1,30.11,East,80,15.0,15.0,98,0.00,CLR,,0.30,WeatherDisplay:10.37,2014-11-21 18:09:00,
2014-11-21 13:14:00,70.7,70.1,30.11,North,355,11.5,11.5,98,0.00,CLR,,0.30,WeatherDisplay:10.37,2014-11-21 18:14:00,
2014-11-21 13:19:00,70.9,70.3,30.12,ENE,65,14.0,14.0,98,0.00,CLR,,0.30,WeatherDisplay:10.37,2014-11-21 18:19:00,
2014-11-21 13:24:00,70.8,70.2,30.11,ENE,61,19.6,19.6,98,0.00,CLR,,0.30,WeatherDisplay:10.37,2014-11-21 18:24:00,
2014-11-21 13:29:00,70.9,70.3,30.11,ENE,63,14.0,14.0,98,0.00,CLR,,0.30,WeatherDisplay:10.37,2014-11-21 18:29:00,
2014-11-21 13:34:00,71.0,70.4,30.11,ENE,77,11.5,11.5,98,0.00,CLR,,0.30,WeatherDisplay:10.37,2014-11-21 18:34:00,
2014-11-21 13:39:00,71.0,70.4,30.11,ENE,59,11.5,11.5,98,0.00,CLR,,0.30,WeatherDisplay:10.37,2014-11-21 18:39:00,
2014-11-21 13:44:00,71.1,70.5,30.11,NE,55,12.0,12.0,98,0.00,CLR,,0.30,WeatherDisplay:10.37,2014-11-21 18:44:00,
2014-11-21 13:49:00,71.1,70.5,30.11,NE,39,11.5,11.5,98,0.00,CLR,,0.30,WeatherDisplay:10.37,2014-11-21 18:49:00,
2014-11-21 13:56:00,71.2,70.6,30.11,ENE,71,11.5,11.5,98,0.00,CLR,,0.30,WeatherDisplay:10.37,2014-11-21 18:56:00,
2014-11-21 14:01:00,71.2,70.6,30.11,ENE,72,11.5,11.5,98,0.00,CLR,,0.30,WeatherDisplay:10.37,2014-11-21 19:01:00,